sensor_id;sensor_type;location;lat;lon;timestamp;P1;durP1;ratioP1;P2;durP2;ratioP2
8777;SDS011;4425;50.872;4.712;2024-02-04T00:00:25;9.43;;;7.53;;
8777;SDS011;4425;50.872;4.712;2024-02-04T00:02:53;8.90;;;7.17;;
8777;SDS011;4425;50.872;4.712;2024-02-04T00:05:20;11.80;;;6.97;;
8777;SDS011;4425;50.872;4.712;2024-02-04T00:07:47;8.93;;;6.73;;
8777;SDS011;4425;50.872;4.712;2024-02-04T00:10:14;11.00;;;7.17;;
8777;SDS011;4425;50.872;4.712;2024-02-04T00:12:42;14.07;;;7.43;;
8777;SDS011;4425;50.872;4.712;2024-02-04T00:15:09;11.93;;;7.00;;
8777;SDS011;4425;50.872;4.712;2024-02-04T00:17:38;10.57;;;6.17;;
8777;SDS011;4425;50.872;4.712;2024-02-04T00:20:05;8.17;;;7.27;;
8777;SDS011;4425;50.872;4.712;2024-02-04T00:22:33;7.00;;;6.30;;
8777;SDS011;4425;50.872;4.712;2024-02-04T00:25:00;7.90;;;6.13;;
8777;SDS011;4425;50.872;4.712;2024-02-04T00:27:30;7.30;;;6.53;;
8777;SDS011;4425;50.872;4.712;2024-02-04T00:29:57;6.70;;;6.00;;
8777;SDS011;4425;50.872;4.712;2024-02-04T00:32:24;11.03;;;6.07;;
8777;SDS011;4425;50.872;4.712;2024-02-04T00:34:53;7.23;;;6.43;;
8777;SDS011;4425;50.872;4.712;2024-02-04T00:37:20;7.73;;;6.20;;
8777;SDS011;4425;50.872;4.712;2024-02-04T00:39:47;10.23;;;6.37;;
8777;SDS011;4425;50.872;4.712;2024-02-04T00:42:14;11.43;;;6.00;;
8777;SDS011;4425;50.872;4.712;2024-02-04T00:44:41;6.10;;;5.50;;
8777;SDS011;4425;50.872;4.712;2024-02-04T00:47:08;6.90;;;5.67;;
8777;SDS011;4425;50.872;4.712;2024-02-04T00:49:35;8.70;;;5.43;;
8777;SDS011;4425;50.872;4.712;2024-02-04T00:52:06;6.00;;;5.20;;
8777;SDS011;4425;50.872;4.712;2024-02-04T00:54:33;5.13;;;4.63;;
8777;SDS011;4425;50.872;4.712;2024-02-04T00:57:16;5.40;;;4.90;;
8777;SDS011;4425;50.872;4.712;2024-02-04T00:59:43;5.13;;;4.60;;
8777;SDS011;4425;50.872;4.712;2024-02-04T01:02:10;6.10;;;4.80;;
8777;SDS011;4425;50.872;4.712;2024-02-04T01:04:38;5.17;;;4.27;;
8777;SDS011;4425;50.872;4.712;2024-02-04T01:07:07;8.33;;;4.97;;
8777;SDS011;4425;50.872;4.712;2024-02-04T01:09:36;6.30;;;4.80;;
8777;SDS011;4425;50.872;4.712;2024-02-04T01:12:03;5.53;;;4.93;;
8777;SDS011;4425;50.872;4.712;2024-02-04T01:14:31;5.03;;;4.50;;
8777;SDS011;4425;50.872;4.712;2024-02-04T01:17:07;6.77;;;4.87;;
8777;SDS011;4425;50.872;4.712;2024-02-04T01:19:34;4.77;;;4.37;;
8777;SDS011;4425;50.872;4.712;2024-02-04T01:22:02;7.13;;;4.57;;
8777;SDS011;4425;50.872;4.712;2024-02-04T01:24:38;5.43;;;4.83;;
8777;SDS011;4425;50.872;4.712;2024-02-04T01:27:06;6.10;;;5.00;;
8777;SDS011;4425;50.872;4.712;2024-02-04T01:29:33;7.60;;;5.10;;
8777;SDS011;4425;50.872;4.712;2024-02-04T01:32:00;6.43;;;5.53;;
8777;SDS011;4425;50.872;4.712;2024-02-04T01:34:27;6.57;;;5.10;;
8777;SDS011;4425;50.872;4.712;2024-02-04T01:36:54;5.83;;;5.00;;
8777;SDS011;4425;50.872;4.712;2024-02-04T01:39:21;6.37;;;4.50;;
8777;SDS011;4425;50.872;4.712;2024-02-04T01:41:50;6.00;;;4.90;;
8777;SDS011;4425;50.872;4.712;2024-02-04T01:44:17;4.43;;;4.00;;
8777;SDS011;4425;50.872;4.712;2024-02-04T01:46:46;5.83;;;4.57;;
8777;SDS011;4425;50.872;4.712;2024-02-04T01:49:13;5.40;;;4.30;;
8777;SDS011;4425;50.872;4.712;2024-02-04T01:51:40;4.60;;;4.20;;
8777;SDS011;4425;50.872;4.712;2024-02-04T01:54:08;4.90;;;4.47;;
8777;SDS011;4425;50.872;4.712;2024-02-04T01:56:35;5.20;;;4.70;;
8777;SDS011;4425;50.872;4.712;2024-02-04T01:59:04;4.80;;;4.40;;
8777;SDS011;4425;50.872;4.712;2024-02-04T02:01:31;5.27;;;4.70;;
8777;SDS011;4425;50.872;4.712;2024-02-04T02:04:00;4.87;;;4.50;;
8777;SDS011;4425;50.872;4.712;2024-02-04T02:06:27;5.73;;;5.10;;
8777;SDS011;4425;50.872;4.712;2024-02-04T02:08:55;5.50;;;5.00;;
8777;SDS011;4425;50.872;4.712;2024-02-04T02:11:25;5.00;;;4.60;;
8777;SDS011;4425;50.872;4.712;2024-02-04T02:14:02;6.20;;;5.60;;
8777;SDS011;4425;50.872;4.712;2024-02-04T02:16:33;7.10;;;4.87;;
8777;SDS011;4425;50.872;4.712;2024-02-04T02:19:00;5.20;;;4.63;;
8777;SDS011;4425;50.872;4.712;2024-02-04T02:21:38;5.47;;;4.77;;
8777;SDS011;4425;50.872;4.712;2024-02-04T02:24:14;5.80;;;5.30;;
8777;SDS011;4425;50.872;4.712;2024-02-04T02:26:45;7.40;;;5.10;;
8777;SDS011;4425;50.872;4.712;2024-02-04T02:29:12;5.87;;;4.83;;
8777;SDS011;4425;50.872;4.712;2024-02-04T02:31:39;6.70;;;4.87;;
8777;SDS011;4425;50.872;4.712;2024-02-04T02:34:08;8.97;;;5.33;;
8777;SDS011;4425;50.872;4.712;2024-02-04T02:36:36;5.83;;;5.23;;
8777;SDS011;4425;50.872;4.712;2024-02-04T02:39:12;8.83;;;5.60;;
8777;SDS011;4425;50.872;4.712;2024-02-04T02:41:43;8.30;;;6.40;;
8777;SDS011;4425;50.872;4.712;2024-02-04T02:44:16;6.13;;;5.30;;
8777;SDS011;4425;50.872;4.712;2024-02-04T02:46:44;8.43;;;5.67;;
8777;SDS011;4425;50.872;4.712;2024-02-04T02:49:13;6.50;;;5.07;;
8777;SDS011;4425;50.872;4.712;2024-02-04T02:51:40;7.43;;;5.57;;
8777;SDS011;4425;50.872;4.712;2024-02-04T02:54:07;10.47;;;5.77;;
8777;SDS011;4425;50.872;4.712;2024-02-04T02:56:34;6.80;;;5.90;;
8777;SDS011;4425;50.872;4.712;2024-02-04T02:59:03;9.23;;;5.47;;
8777;SDS011;4425;50.872;4.712;2024-02-04T03:01:30;5.97;;;5.40;;
8777;SDS011;4425;50.872;4.712;2024-02-04T03:03:57;8.37;;;6.00;;
8777;SDS011;4425;50.872;4.712;2024-02-04T03:06:24;7.00;;;6.30;;
8777;SDS011;4425;50.872;4.712;2024-02-04T03:08:51;8.80;;;6.30;;
8777;SDS011;4425;50.872;4.712;2024-02-04T03:11:19;12.03;;;6.87;;
8777;SDS011;4425;50.872;4.712;2024-02-04T03:13:46;8.83;;;6.87;;
8777;SDS011;4425;50.872;4.712;2024-02-04T03:16:14;14.30;;;7.63;;
8777;SDS011;4425;50.872;4.712;2024-02-04T03:18:42;9.70;;;6.97;;
8777;SDS011;4425;50.872;4.712;2024-02-04T03:21:13;11.53;;;7.40;;
8777;SDS011;4425;50.872;4.712;2024-02-04T03:23:40;11.87;;;7.33;;
8777;SDS011;4425;50.872;4.712;2024-02-04T03:26:08;10.13;;;7.50;;
8777;SDS011;4425;50.872;4.712;2024-02-04T03:28:35;15.67;;;7.93;;
8777;SDS011;4425;50.872;4.712;2024-02-04T03:31:03;10.00;;;7.87;;
8777;SDS011;4425;50.872;4.712;2024-02-04T03:33:31;14.10;;;8.20;;
8777;SDS011;4425;50.872;4.712;2024-02-04T03:35:59;18.53;;;8.93;;
8777;SDS011;4425;50.872;4.712;2024-02-04T03:38:26;15.47;;;8.17;;
8777;SDS011;4425;50.872;4.712;2024-02-04T03:40:54;15.70;;;8.17;;
8777;SDS011;4425;50.872;4.712;2024-02-04T03:43:21;11.43;;;8.23;;
8777;SDS011;4425;50.872;4.712;2024-02-04T03:45:48;14.97;;;8.50;;
8777;SDS011;4425;50.872;4.712;2024-02-04T03:48:15;13.20;;;7.97;;
8777;SDS011;4425;50.872;4.712;2024-02-04T03:50:44;14.33;;;8.43;;
8777;SDS011;4425;50.872;4.712;2024-02-04T03:53:11;16.37;;;7.87;;
8777;SDS011;4425;50.872;4.712;2024-02-04T03:55:38;10.93;;;7.80;;
8777;SDS011;4425;50.872;4.712;2024-02-04T03:58:05;13.63;;;7.33;;
8777;SDS011;4425;50.872;4.712;2024-02-04T04:00:33;14.30;;;7.60;;
8777;SDS011;4425;50.872;4.712;2024-02-04T04:03:00;14.17;;;8.10;;
8777;SDS011;4425;50.872;4.712;2024-02-04T04:05:27;14.47;;;7.33;;
8777;SDS011;4425;50.872;4.712;2024-02-04T04:07:56;10.87;;;6.83;;
8777;SDS011;4425;50.872;4.712;2024-02-04T04:10:23;12.10;;;6.43;;
8777;SDS011;4425;50.872;4.712;2024-02-04T04:12:50;10.17;;;6.83;;
8777;SDS011;4425;50.872;4.712;2024-02-04T04:15:18;11.73;;;7.40;;
8777;SDS011;4425;50.872;4.712;2024-02-04T04:17:45;10.90;;;6.97;;
8777;SDS011;4425;50.872;4.712;2024-02-04T04:20:12;11.17;;;6.83;;
8777;SDS011;4425;50.872;4.712;2024-02-04T04:22:39;10.30;;;6.53;;
8777;SDS011;4425;50.872;4.712;2024-02-04T04:25:08;10.50;;;7.07;;
8777;SDS011;4425;50.872;4.712;2024-02-04T04:27:36;12.73;;;7.53;;
8777;SDS011;4425;50.872;4.712;2024-02-04T04:30:03;15.23;;;7.27;;
8777;SDS011;4425;50.872;4.712;2024-02-04T04:32:30;12.27;;;6.93;;
8777;SDS011;4425;50.872;4.712;2024-02-04T04:34:58;10.97;;;6.73;;
8777;SDS011;4425;50.872;4.712;2024-02-04T04:37:25;9.00;;;6.90;;
8777;SDS011;4425;50.872;4.712;2024-02-04T04:39:52;11.33;;;6.07;;
8777;SDS011;4425;50.872;4.712;2024-02-04T04:42:20;11.30;;;6.87;;
8777;SDS011;4425;50.872;4.712;2024-02-04T04:44:47;11.70;;;6.60;;
8777;SDS011;4425;50.872;4.712;2024-02-04T04:47:15;10.93;;;6.50;;
8777;SDS011;4425;50.872;4.712;2024-02-04T04:49:42;11.87;;;6.70;;
8777;SDS011;4425;50.872;4.712;2024-02-04T04:52:09;12.27;;;6.13;;
8777;SDS011;4425;50.872;4.712;2024-02-04T04:54:36;11.10;;;6.43;;
8777;SDS011;4425;50.872;4.712;2024-02-04T04:57:03;10.90;;;6.57;;
8777;SDS011;4425;50.872;4.712;2024-02-04T04:59:32;8.30;;;6.53;;
8777;SDS011;4425;50.872;4.712;2024-02-04T05:02:01;11.13;;;6.17;;
8777;SDS011;4425;50.872;4.712;2024-02-04T05:04:28;9.17;;;6.33;;
8777;SDS011;4425;50.872;4.712;2024-02-04T05:06:55;11.40;;;6.20;;
8777;SDS011;4425;50.872;4.712;2024-02-04T05:09:22;8.97;;;5.83;;
8777;SDS011;4425;50.872;4.712;2024-02-04T05:11:49;7.80;;;5.47;;
8777;SDS011;4425;50.872;4.712;2024-02-04T05:14:16;5.67;;;5.17;;
8777;SDS011;4425;50.872;4.712;2024-02-04T05:16:45;6.43;;;5.80;;
8777;SDS011;4425;50.872;4.712;2024-02-04T05:19:12;9.47;;;5.83;;
8777;SDS011;4425;50.872;4.712;2024-02-04T05:21:39;10.33;;;5.00;;
8777;SDS011;4425;50.872;4.712;2024-02-04T05:24:06;8.20;;;5.17;;
8777;SDS011;4425;50.872;4.712;2024-02-04T05:26:34;7.87;;;4.90;;
8777;SDS011;4425;50.872;4.712;2024-02-04T05:29:01;8.57;;;4.63;;
8777;SDS011;4425;50.872;4.712;2024-02-04T05:31:28;8.17;;;4.40;;
8777;SDS011;4425;50.872;4.712;2024-02-04T05:33:57;6.27;;;3.90;;
8777;SDS011;4425;50.872;4.712;2024-02-04T05:36:24;4.83;;;4.13;;
8777;SDS011;4425;50.872;4.712;2024-02-04T05:38:51;5.50;;;4.03;;
8777;SDS011;4425;50.872;4.712;2024-02-04T05:41:18;9.30;;;4.40;;
8777;SDS011;4425;50.872;4.712;2024-02-04T05:43:45;4.50;;;4.10;;
8777;SDS011;4425;50.872;4.712;2024-02-04T05:46:13;9.07;;;4.77;;
8777;SDS011;4425;50.872;4.712;2024-02-04T05:48:41;4.50;;;4.10;;
8777;SDS011;4425;50.872;4.712;2024-02-04T05:51:11;7.77;;;4.40;;
8777;SDS011;4425;50.872;4.712;2024-02-04T05:53:38;4.10;;;3.47;;
8777;SDS011;4425;50.872;4.712;2024-02-04T05:56:05;6.10;;;3.90;;
8777;SDS011;4425;50.872;4.712;2024-02-04T05:58:32;7.33;;;4.10;;
8777;SDS011;4425;50.872;4.712;2024-02-04T06:00:59;5.60;;;4.10;;
8777;SDS011;4425;50.872;4.712;2024-02-04T06:03:26;6.93;;;4.40;;
8777;SDS011;4425;50.872;4.712;2024-02-04T06:05:53;6.27;;;4.73;;
8777;SDS011;4425;50.872;4.712;2024-02-04T06:08:22;5.00;;;4.10;;
8777;SDS011;4425;50.872;4.712;2024-02-04T06:10:49;7.33;;;5.30;;
8777;SDS011;4425;50.872;4.712;2024-02-04T06:13:16;7.83;;;5.40;;
8777;SDS011;4425;50.872;4.712;2024-02-04T06:15:43;10.37;;;5.53;;
8777;SDS011;4425;50.872;4.712;2024-02-04T06:18:10;12.40;;;6.23;;
8777;SDS011;4425;50.872;4.712;2024-02-04T06:20:37;10.87;;;6.53;;
8777;SDS011;4425;50.872;4.712;2024-02-04T06:23:04;9.33;;;6.37;;
8777;SDS011;4425;50.872;4.712;2024-02-04T06:25:32;13.63;;;6.97;;
8777;SDS011;4425;50.872;4.712;2024-02-04T06:27:59;15.47;;;7.50;;
8777;SDS011;4425;50.872;4.712;2024-02-04T06:30:26;15.17;;;7.20;;
8777;SDS011;4425;50.872;4.712;2024-02-04T06:32:56;12.67;;;6.20;;
8777;SDS011;4425;50.872;4.712;2024-02-04T06:35:24;9.37;;;6.97;;
8777;SDS011;4425;50.872;4.712;2024-02-04T06:37:51;14.00;;;7.20;;
8777;SDS011;4425;50.872;4.712;2024-02-04T06:40:18;11.10;;;6.70;;
8777;SDS011;4425;50.872;4.712;2024-02-04T06:42:46;15.97;;;7.63;;
8777;SDS011;4425;50.872;4.712;2024-02-04T06:45:13;16.33;;;6.90;;
8777;SDS011;4425;50.872;4.712;2024-02-04T06:47:42;10.33;;;5.73;;
8777;SDS011;4425;50.872;4.712;2024-02-04T06:50:09;10.57;;;6.90;;
8777;SDS011;4425;50.872;4.712;2024-02-04T06:52:39;9.63;;;6.73;;
8777;SDS011;4425;50.872;4.712;2024-02-04T06:55:06;11.13;;;6.13;;
8777;SDS011;4425;50.872;4.712;2024-02-04T06:57:33;10.67;;;6.60;;
8777;SDS011;4425;50.872;4.712;2024-02-04T07:00:02;9.87;;;6.43;;
8777;SDS011;4425;50.872;4.712;2024-02-04T07:02:30;11.83;;;6.40;;
8777;SDS011;4425;50.872;4.712;2024-02-04T07:04:57;10.77;;;5.53;;
8777;SDS011;4425;50.872;4.712;2024-02-04T07:07:24;9.47;;;6.40;;
8777;SDS011;4425;50.872;4.712;2024-02-04T07:09:51;8.07;;;6.37;;
8777;SDS011;4425;50.872;4.712;2024-02-04T07:12:18;11.40;;;5.97;;
8777;SDS011;4425;50.872;4.712;2024-02-04T07:14:46;12.77;;;6.37;;
8777;SDS011;4425;50.872;4.712;2024-02-04T07:17:14;10.47;;;6.20;;
8777;SDS011;4425;50.872;4.712;2024-02-04T07:19:42;11.37;;;6.60;;
8777;SDS011;4425;50.872;4.712;2024-02-04T07:22:09;10.37;;;6.10;;
8777;SDS011;4425;50.872;4.712;2024-02-04T07:24:36;10.43;;;6.17;;
8777;SDS011;4425;50.872;4.712;2024-02-04T07:27:03;7.00;;;5.90;;
8777;SDS011;4425;50.872;4.712;2024-02-04T07:29:32;9.13;;;6.10;;
8777;SDS011;4425;50.872;4.712;2024-02-04T07:31:59;7.57;;;5.97;;
8777;SDS011;4425;50.872;4.712;2024-02-04T07:34:28;10.83;;;6.57;;
8777;SDS011;4425;50.872;4.712;2024-02-04T07:36:55;9.93;;;6.10;;
8777;SDS011;4425;50.872;4.712;2024-02-04T07:39:22;15.43;;;7.50;;
8777;SDS011;4425;50.872;4.712;2024-02-04T07:41:49;11.73;;;7.53;;
8777;SDS011;4425;50.872;4.712;2024-02-04T07:44:16;12.17;;;7.30;;
8777;SDS011;4425;50.872;4.712;2024-02-04T07:46:44;14.13;;;7.50;;
8777;SDS011;4425;50.872;4.712;2024-02-04T07:49:11;11.53;;;7.03;;
8777;SDS011;4425;50.872;4.712;2024-02-04T07:51:39;13.10;;;7.40;;
8777;SDS011;4425;50.872;4.712;2024-02-04T07:54:06;14.53;;;7.80;;
8777;SDS011;4425;50.872;4.712;2024-02-04T07:56:33;15.80;;;7.37;;
8777;SDS011;4425;50.872;4.712;2024-02-04T07:59:00;16.20;;;8.40;;
8777;SDS011;4425;50.872;4.712;2024-02-04T08:01:28;11.43;;;7.57;;
8777;SDS011;4425;50.872;4.712;2024-02-04T08:03:56;14.17;;;8.60;;
8777;SDS011;4425;50.872;4.712;2024-02-04T08:06:23;10.83;;;7.60;;
8777;SDS011;4425;50.872;4.712;2024-02-04T08:08:51;12.37;;;7.53;;
8777;SDS011;4425;50.872;4.712;2024-02-04T08:11:18;16.10;;;8.40;;
8777;SDS011;4425;50.872;4.712;2024-02-04T08:13:47;11.20;;;7.70;;
8777;SDS011;4425;50.872;4.712;2024-02-04T08:16:14;11.30;;;7.10;;
8777;SDS011;4425;50.872;4.712;2024-02-04T08:18:41;9.77;;;6.80;;
8777;SDS011;4425;50.872;4.712;2024-02-04T08:21:08;13.67;;;7.00;;
8777;SDS011;4425;50.872;4.712;2024-02-04T08:23:36;13.13;;;7.37;;
8777;SDS011;4425;50.872;4.712;2024-02-04T08:26:06;11.33;;;8.03;;
8777;SDS011;4425;50.872;4.712;2024-02-04T08:28:33;8.00;;;6.47;;
8777;SDS011;4425;50.872;4.712;2024-02-04T08:31:00;12.80;;;6.17;;
8777;SDS011;4425;50.872;4.712;2024-02-04T08:33:27;11.10;;;6.53;;
8777;SDS011;4425;50.872;4.712;2024-02-04T08:35:54;9.77;;;6.93;;
8777;SDS011;4425;50.872;4.712;2024-02-04T08:38:21;12.43;;;7.70;;
8777;SDS011;4425;50.872;4.712;2024-02-04T08:40:48;10.33;;;6.60;;
8777;SDS011;4425;50.872;4.712;2024-02-04T08:43:16;7.23;;;5.63;;
8777;SDS011;4425;50.872;4.712;2024-02-04T08:45:43;6.93;;;5.33;;
8777;SDS011;4425;50.872;4.712;2024-02-04T08:48:10;11.73;;;5.50;;
8777;SDS011;4425;50.872;4.712;2024-02-04T08:50:37;5.57;;;4.90;;
8777;SDS011;4425;50.872;4.712;2024-02-04T08:53:04;7.17;;;4.50;;
8777;SDS011;4425;50.872;4.712;2024-02-04T08:55:31;6.93;;;4.03;;
8777;SDS011;4425;50.872;4.712;2024-02-04T08:57:58;9.37;;;5.13;;
8777;SDS011;4425;50.872;4.712;2024-02-04T09:00:30;6.77;;;4.40;;
8777;SDS011;4425;50.872;4.712;2024-02-04T09:02:57;5.17;;;4.40;;
8777;SDS011;4425;50.872;4.712;2024-02-04T09:05:24;5.33;;;4.60;;
8777;SDS011;4425;50.872;4.712;2024-02-04T09:07:51;8.27;;;5.10;;
8777;SDS011;4425;50.872;4.712;2024-02-04T09:10:20;11.07;;;5.00;;
8777;SDS011;4425;50.872;4.712;2024-02-04T09:12:47;8.23;;;4.80;;
8777;SDS011;4425;50.872;4.712;2024-02-04T09:15:14;8.87;;;4.33;;
8777;SDS011;4425;50.872;4.712;2024-02-04T09:17:43;7.60;;;5.20;;
8777;SDS011;4425;50.872;4.712;2024-02-04T09:20:10;8.23;;;4.60;;
8777;SDS011;4425;50.872;4.712;2024-02-04T09:22:38;10.70;;;5.00;;
8777;SDS011;4425;50.872;4.712;2024-02-04T09:25:05;8.73;;;4.97;;
8777;SDS011;4425;50.872;4.712;2024-02-04T09:27:33;4.67;;;4.20;;
8777;SDS011;4425;50.872;4.712;2024-02-04T09:30:00;6.60;;;4.43;;
8777;SDS011;4425;50.872;4.712;2024-02-04T09:32:27;5.87;;;3.83;;
8777;SDS011;4425;50.872;4.712;2024-02-04T09:34:55;5.90;;;3.90;;
8777;SDS011;4425;50.872;4.712;2024-02-04T09:37:23;5.07;;;3.60;;
8777;SDS011;4425;50.872;4.712;2024-02-04T09:39:51;6.27;;;3.37;;
8777;SDS011;4425;50.872;4.712;2024-02-04T09:42:19;5.67;;;3.23;;
8777;SDS011;4425;50.872;4.712;2024-02-04T09:44:48;6.37;;;3.30;;
8777;SDS011;4425;50.872;4.712;2024-02-04T09:47:16;5.23;;;3.20;;
8777;SDS011;4425;50.872;4.712;2024-02-04T09:49:43;4.00;;;2.97;;
8777;SDS011;4425;50.872;4.712;2024-02-04T09:52:13;3.80;;;3.10;;
8777;SDS011;4425;50.872;4.712;2024-02-04T09:54:45;4.63;;;3.70;;
8777;SDS011;4425;50.872;4.712;2024-02-04T09:57:15;3.50;;;2.90;;
8777;SDS011;4425;50.872;4.712;2024-02-04T09:59:43;4.97;;;2.93;;
8777;SDS011;4425;50.872;4.712;2024-02-04T10:02:12;4.07;;;2.83;;
8777;SDS011;4425;50.872;4.712;2024-02-04T10:04:39;4.00;;;2.83;;
8777;SDS011;4425;50.872;4.712;2024-02-04T10:07:05;6.20;;;2.83;;
8777;SDS011;4425;50.872;4.712;2024-02-04T10:09:34;5.63;;;2.57;;
8777;SDS011;4425;50.872;4.712;2024-02-04T10:12:01;3.97;;;2.37;;
8777;SDS011;4425;50.872;4.712;2024-02-04T10:14:29;3.30;;;2.27;;
8777;SDS011;4425;50.872;4.712;2024-02-04T10:16:56;3.90;;;2.53;;
8777;SDS011;4425;50.872;4.712;2024-02-04T10:19:24;3.47;;;2.80;;
8777;SDS011;4425;50.872;4.712;2024-02-04T10:21:57;3.80;;;2.60;;
8777;SDS011;4425;50.872;4.712;2024-02-04T10:24:25;6.47;;;3.10;;
8777;SDS011;4425;50.872;4.712;2024-02-04T10:26:54;4.90;;;3.00;;
8777;SDS011;4425;50.872;4.712;2024-02-04T10:29:21;3.10;;;2.60;;
8777;SDS011;4425;50.872;4.712;2024-02-04T10:31:48;3.90;;;2.67;;
8777;SDS011;4425;50.872;4.712;2024-02-04T10:34:19;3.20;;;2.90;;
8777;SDS011;4425;50.872;4.712;2024-02-04T10:36:46;4.40;;;3.00;;
8777;SDS011;4425;50.872;4.712;2024-02-04T10:39:13;5.03;;;3.10;;
8777;SDS011;4425;50.872;4.712;2024-02-04T10:41:43;4.03;;;3.20;;
8777;SDS011;4425;50.872;4.712;2024-02-04T10:44:18;4.27;;;3.30;;
8777;SDS011;4425;50.872;4.712;2024-02-04T10:46:48;2.90;;;2.70;;
8777;SDS011;4425;50.872;4.712;2024-02-04T10:49:17;3.27;;;3.07;;
8777;SDS011;4425;50.872;4.712;2024-02-04T10:51:45;5.77;;;3.40;;
8777;SDS011;4425;50.872;4.712;2024-02-04T10:54:14;5.07;;;3.60;;
8777;SDS011;4425;50.872;4.712;2024-02-04T10:56:43;3.67;;;3.13;;
8777;SDS011;4425;50.872;4.712;2024-02-04T10:59:18;5.53;;;3.03;;
8777;SDS011;4425;50.872;4.712;2024-02-04T11:01:47;6.13;;;3.07;;
8777;SDS011;4425;50.872;4.712;2024-02-04T11:04:14;4.27;;;3.17;;
8777;SDS011;4425;50.872;4.712;2024-02-04T11:06:43;3.53;;;2.90;;
8777;SDS011;4425;50.872;4.712;2024-02-04T11:09:11;5.43;;;3.00;;
8777;SDS011;4425;50.872;4.712;2024-02-04T11:11:39;4.17;;;2.97;;
8777;SDS011;4425;50.872;4.712;2024-02-04T11:14:08;3.40;;;3.10;;
8777;SDS011;4425;50.872;4.712;2024-02-04T11:16:49;3.30;;;2.70;;
8777;SDS011;4425;50.872;4.712;2024-02-04T11:19:44;2.33;;;2.10;;
8777;SDS011;4425;50.872;4.712;2024-02-04T11:25:19;4.70;;;2.37;;
8777;SDS011;4425;50.872;4.712;2024-02-04T11:28:03;5.17;;;2.30;;
8777;SDS011;4425;50.872;4.712;2024-02-04T11:30:32;3.20;;;1.70;;
8777;SDS011;4425;50.872;4.712;2024-02-04T11:33:03;2.73;;;2.20;;
8777;SDS011;4425;50.872;4.712;2024-02-04T11:35:31;2.90;;;1.90;;
8777;SDS011;4425;50.872;4.712;2024-02-04T11:37:58;3.93;;;1.90;;
8777;SDS011;4425;50.872;4.712;2024-02-04T11:40:29;3.53;;;2.10;;
8777;SDS011;4425;50.872;4.712;2024-02-04T11:43:03;1.70;;;1.60;;
8777;SDS011;4425;50.872;4.712;2024-02-04T11:45:31;2.23;;;1.70;;
8777;SDS011;4425;50.872;4.712;2024-02-04T11:48:02;1.80;;;1.70;;
8777;SDS011;4425;50.872;4.712;2024-02-04T11:50:33;2.57;;;2.27;;
8777;SDS011;4425;50.872;4.712;2024-02-04T11:53:07;1.80;;;1.70;;
8777;SDS011;4425;50.872;4.712;2024-02-04T11:55:35;2.73;;;1.57;;
8777;SDS011;4425;50.872;4.712;2024-02-04T11:58:05;2.30;;;1.70;;
8777;SDS011;4425;50.872;4.712;2024-02-04T12:00:32;2.20;;;1.60;;
8777;SDS011;4425;50.872;4.712;2024-02-04T12:03:03;2.17;;;1.70;;
8777;SDS011;4425;50.872;4.712;2024-02-04T12:05:31;4.03;;;1.77;;
8777;SDS011;4425;50.872;4.712;2024-02-04T12:07:59;1.60;;;1.50;;
8777;SDS011;4425;50.872;4.712;2024-02-04T12:10:27;4.50;;;2.07;;
8777;SDS011;4425;50.872;4.712;2024-02-04T12:12:55;3.50;;;1.87;;
8777;SDS011;4425;50.872;4.712;2024-02-04T12:15:23;4.30;;;1.80;;
8777;SDS011;4425;50.872;4.712;2024-02-04T12:17:50;3.63;;;1.80;;
8777;SDS011;4425;50.872;4.712;2024-02-04T12:20:18;4.10;;;1.70;;
8777;SDS011;4425;50.872;4.712;2024-02-04T12:22:46;3.83;;;1.70;;
8777;SDS011;4425;50.872;4.712;2024-02-04T12:25:14;1.90;;;1.70;;
8777;SDS011;4425;50.872;4.712;2024-02-04T12:27:42;4.47;;;2.37;;
8777;SDS011;4425;50.872;4.712;2024-02-04T12:30:13;1.60;;;1.50;;
8777;SDS011;4425;50.872;4.712;2024-02-04T12:32:40;5.10;;;1.97;;
8777;SDS011;4425;50.872;4.712;2024-02-04T12:35:07;2.67;;;1.80;;
8777;SDS011;4425;50.872;4.712;2024-02-04T12:37:50;2.67;;;1.80;;
8777;SDS011;4425;50.872;4.712;2024-02-04T12:40:20;3.57;;;1.40;;
8777;SDS011;4425;50.872;4.712;2024-02-04T12:42:51;2.70;;;1.73;;
8777;SDS011;4425;50.872;4.712;2024-02-04T12:45:19;1.53;;;1.43;;
8777;SDS011;4425;50.872;4.712;2024-02-04T12:47:48;2.70;;;2.07;;
8777;SDS011;4425;50.872;4.712;2024-02-04T12:50:16;1.70;;;1.60;;
8777;SDS011;4425;50.872;4.712;2024-02-04T12:52:45;4.27;;;1.67;;
8777;SDS011;4425;50.872;4.712;2024-02-04T12:55:26;1.97;;;1.80;;
8777;SDS011;4425;50.872;4.712;2024-02-04T12:58:06;1.70;;;1.60;;
8777;SDS011;4425;50.872;4.712;2024-02-04T13:00:36;1.93;;;1.53;;
8777;SDS011;4425;50.872;4.712;2024-02-04T13:03:04;2.70;;;1.57;;
8777;SDS011;4425;50.872;4.712;2024-02-04T13:05:33;2.20;;;1.60;;
8777;SDS011;4425;50.872;4.712;2024-02-04T13:08:02;1.47;;;1.37;;
8777;SDS011;4425;50.872;4.712;2024-02-04T13:10:32;2.80;;;1.40;;
8777;SDS011;4425;50.872;4.712;2024-02-04T13:13:00;1.60;;;1.50;;
8777;SDS011;4425;50.872;4.712;2024-02-04T13:15:28;1.30;;;1.30;;
8777;SDS011;4425;50.872;4.712;2024-02-04T13:17:56;1.40;;;1.30;;
8777;SDS011;4425;50.872;4.712;2024-02-04T13:20:24;1.47;;;1.37;;
8777;SDS011;4425;50.872;4.712;2024-02-04T13:22:51;1.10;;;1.10;;
8777;SDS011;4425;50.872;4.712;2024-02-04T13:25:19;1.20;;;1.20;;
8777;SDS011;4425;50.872;4.712;2024-02-04T13:27:49;1.90;;;1.50;;
8777;SDS011;4425;50.872;4.712;2024-02-04T13:30:16;2.13;;;1.37;;
8777;SDS011;4425;50.872;4.712;2024-02-04T13:32:44;1.40;;;1.30;;
8777;SDS011;4425;50.872;4.712;2024-02-04T13:35:12;1.40;;;1.30;;
8777;SDS011;4425;50.872;4.712;2024-02-04T13:37:41;1.17;;;1.17;;
8777;SDS011;4425;50.872;4.712;2024-02-04T13:40:12;1.30;;;1.30;;
8777;SDS011;4425;50.872;4.712;2024-02-04T13:42:40;2.20;;;1.30;;
8777;SDS011;4425;50.872;4.712;2024-02-04T13:45:09;1.27;;;1.27;;
8777;SDS011;4425;50.872;4.712;2024-02-04T13:47:38;3.13;;;1.10;;
8777;SDS011;4425;50.872;4.712;2024-02-04T13:50:06;2.03;;;1.30;;
8777;SDS011;4425;50.872;4.712;2024-02-04T13:52:34;2.57;;;1.40;;
8777;SDS011;4425;50.872;4.712;2024-02-04T13:55:01;1.40;;;1.40;;
8777;SDS011;4425;50.872;4.712;2024-02-04T13:57:30;1.10;;;1.03;;
8777;SDS011;4425;50.872;4.712;2024-02-04T13:59:57;1.10;;;1.10;;
8777;SDS011;4425;50.872;4.712;2024-02-04T14:02:26;1.53;;;1.10;;
8777;SDS011;4425;50.872;4.712;2024-02-04T14:04:55;1.20;;;1.17;;
8777;SDS011;4425;50.872;4.712;2024-02-04T14:07:22;1.37;;;1.37;;
8777;SDS011;4425;50.872;4.712;2024-02-04T14:09:49;2.03;;;1.90;;
8777;SDS011;4425;50.872;4.712;2024-02-04T14:12:16;4.03;;;1.30;;
8777;SDS011;4425;50.872;4.712;2024-02-04T14:14:44;2.00;;;1.20;;
8777;SDS011;4425;50.872;4.712;2024-02-04T14:17:11;1.80;;;1.70;;
8777;SDS011;4425;50.872;4.712;2024-02-04T14:19:40;2.20;;;1.60;;
8777;SDS011;4425;50.872;4.712;2024-02-04T14:22:10;2.20;;;1.37;;
8777;SDS011;4425;50.872;4.712;2024-02-04T14:24:37;1.40;;;1.40;;
8777;SDS011;4425;50.872;4.712;2024-02-04T14:27:05;1.37;;;1.37;;
8777;SDS011;4425;50.872;4.712;2024-02-04T14:29:32;1.87;;;1.57;;
8777;SDS011;4425;50.872;4.712;2024-02-04T14:31:59;1.77;;;1.67;;
8777;SDS011;4425;50.872;4.712;2024-02-04T14:34:26;1.70;;;1.60;;
8777;SDS011;4425;50.872;4.712;2024-02-04T14:36:55;1.63;;;1.53;;
8777;SDS011;4425;50.872;4.712;2024-02-04T14:39:22;4.10;;;2.13;;
8777;SDS011;4425;50.872;4.712;2024-02-04T14:41:49;4.50;;;2.03;;
8777;SDS011;4425;50.872;4.712;2024-02-04T14:44:18;2.23;;;1.70;;
8777;SDS011;4425;50.872;4.712;2024-02-04T14:46:49;3.27;;;2.07;;
8777;SDS011;4425;50.872;4.712;2024-02-04T14:49:16;1.90;;;1.80;;
8777;SDS011;4425;50.872;4.712;2024-02-04T14:51:43;6.10;;;1.90;;
8777;SDS011;4425;50.872;4.712;2024-02-04T14:54:12;2.10;;;1.90;;
8777;SDS011;4425;50.872;4.712;2024-02-04T14:56:40;4.70;;;2.13;;
8777;SDS011;4425;50.872;4.712;2024-02-04T14:59:08;2.57;;;1.77;;
8777;SDS011;4425;50.872;4.712;2024-02-04T15:01:36;8.70;;;2.10;;
8777;SDS011;4425;50.872;4.712;2024-02-04T15:04:03;4.60;;;1.80;;
8777;SDS011;4425;50.872;4.712;2024-02-04T15:06:30;3.57;;;2.30;;
8777;SDS011;4425;50.872;4.712;2024-02-04T15:08:58;4.57;;;2.00;;
8777;SDS011;4425;50.872;4.712;2024-02-04T15:11:27;6.53;;;2.07;;
8777;SDS011;4425;50.872;4.712;2024-02-04T15:13:55;2.80;;;1.90;;
8777;SDS011;4425;50.872;4.712;2024-02-04T15:16:23;4.83;;;1.90;;
8777;SDS011;4425;50.872;4.712;2024-02-04T15:18:51;6.07;;;2.33;;
8777;SDS011;4425;50.872;4.712;2024-02-04T15:21:18;2.00;;;1.87;;